sensor_id;sensor_type;location;lat;lon;timestamp;pressure;altitude;pressure_sealevel;temperature
14851;BMP180;7517;48.400;11.770;2023-06-22T00:02:24;96650.00;;;23.90
14851;BMP180;7517;48.400;11.770;2023-06-22T00:04:51;96627.00;;;23.90
14851;BMP180;7517;48.400;11.770;2023-06-22T00:07:18;96622.00;;;23.90
14851;BMP180;7517;48.400;11.770;2023-06-22T00:09:45;96615.00;;;23.80
14851;BMP180;7517;48.400;11.770;2023-06-22T00:12:12;96604.00;;;23.80
14851;BMP180;7517;48.400;11.770;2023-06-22T00:14:40;96604.00;;;23.80
14851;BMP180;7517;48.400;11.770;2023-06-22T00:17:08;96587.00;;;23.80
14851;BMP180;7517;48.400;11.770;2023-06-22T00:19:35;96580.00;;;23.80
14851;BMP180;7517;48.400;11.770;2023-06-22T00:22:02;96579.00;;;23.80
14851;BMP180;7517;48.400;11.770;2023-06-22T00:24:30;96581.00;;;23.80
14851;BMP180;7517;48.400;11.770;2023-06-22T00:26:57;96579.00;;;23.80
14851;BMP180;7517;48.400;11.770;2023-06-22T00:29:24;96576.00;;;23.70
14851;BMP180;7517;48.400;11.770;2023-06-22T00:31:52;96580.00;;;23.70
14851;BMP180;7517;48.400;11.770;2023-06-22T00:34:20;96565.00;;;23.70
14851;BMP180;7517;48.400;11.770;2023-06-22T00:36:47;96561.00;;;23.70
14851;BMP180;7517;48.400;11.770;2023-06-22T00:39:14;96562.00;;;23.70
14851;BMP180;7517;48.400;11.770;2023-06-22T00:41:41;96566.00;;;23.70
14851;BMP180;7517;48.400;11.770;2023-06-22T00:44:08;96555.00;;;23.70
14851;BMP180;7517;48.400;11.770;2023-06-22T00:46:35;96554.00;;;23.60
14851;BMP180;7517;48.400;11.770;2023-06-22T00:49:04;96556.00;;;23.60
14851;BMP180;7517;48.400;11.770;2023-06-22T00:51:32;96555.00;;;23.60
14851;BMP180;7517;48.400;11.770;2023-06-22T00:53:59;96563.00;;;23.60
14851;BMP180;7517;48.400;11.770;2023-06-22T00:56:26;96563.00;;;23.60
14851;BMP180;7517;48.400;11.770;2023-06-22T00:58:57;96565.00;;;23.60
14851;BMP180;7517;48.400;11.770;2023-06-22T01:01:25;96562.00;;;23.60
14851;BMP180;7517;48.400;11.770;2023-06-22T01:03:52;96560.00;;;23.50
14851;BMP180;7517;48.400;11.770;2023-06-22T01:06:32;96564.00;;;23.50
14851;BMP180;7517;48.400;11.770;2023-06-22T01:09:12;96565.00;;;23.50
14851;BMP180;7517;48.400;11.770;2023-06-22T01:11:45;96560.00;;;23.50
14851;BMP180;7517;48.400;11.770;2023-06-22T01:14:22;96564.00;;;23.50
14851;BMP180;7517;48.400;11.770;2023-06-22T01:16:53;96554.00;;;23.50
14851;BMP180;7517;48.400;11.770;2023-06-22T01:19:37;96561.00;;;23.40
14851;BMP180;7517;48.400;11.770;2023-06-22T01:22:11;96560.00;;;23.40
14851;BMP180;7517;48.400;11.770;2023-06-22T01:24:55;96554.00;;;23.40
14851;BMP180;7517;48.400;11.770;2023-06-22T01:27:39;96560.00;;;23.40
14851;BMP180;7517;48.400;11.770;2023-06-22T01:30:11;96552.00;;;23.40
14851;BMP180;7517;48.400;11.770;2023-06-22T01:32:41;96549.00;;;23.40
14851;BMP180;7517;48.400;11.770;2023-06-22T01:35:10;96540.00;;;23.40
14851;BMP180;7517;48.400;11.770;2023-06-22T01:37:39;96534.00;;;23.30
14851;BMP180;7517;48.400;11.770;2023-06-22T01:40:08;96540.00;;;23.30
14851;BMP180;7517;48.400;11.770;2023-06-22T01:42:36;96537.00;;;23.30
14851;BMP180;7517;48.400;11.770;2023-06-22T01:45:10;96540.00;;;23.30
14851;BMP180;7517;48.400;11.770;2023-06-22T01:47:38;96531.00;;;23.20
14851;BMP180;7517;48.400;11.770;2023-06-22T01:50:08;96538.00;;;23.20
14851;BMP180;7517;48.400;11.770;2023-06-22T01:52:37;96540.00;;;23.20
14851;BMP180;7517;48.400;11.770;2023-06-22T01:55:07;96537.00;;;23.10
14851;BMP180;7517;48.400;11.770;2023-06-22T01:57:35;96529.00;;;23.10
14851;BMP180;7517;48.400;11.770;2023-06-22T02:00:09;96532.00;;;23.10
14851;BMP180;7517;48.400;11.770;2023-06-22T02:02:48;96544.00;;;23.10
14851;BMP180;7517;48.400;11.770;2023-06-22T02:05:21;96543.00;;;23.10
14851;BMP180;7517;48.400;11.770;2023-06-22T02:08:02;96541.00;;;23.00
14851;BMP180;7517;48.400;11.770;2023-06-22T02:10:31;96538.00;;;23.00
14851;BMP180;7517;48.400;11.770;2023-06-22T02:13:01;96546.00;;;23.00
14851;BMP180;7517;48.400;11.770;2023-06-22T02:15:30;96546.00;;;23.00
14851;BMP180;7517;48.400;11.770;2023-06-22T02:18:00;96545.00;;;23.00
14851;BMP180;7517;48.400;11.770;2023-06-22T02:20:27;96552.00;;;23.00
14851;BMP180;7517;48.400;11.770;2023-06-22T02:22:54;96546.00;;;22.90
14851;BMP180;7517;48.400;11.770;2023-06-22T02:25:21;96550.00;;;22.90
14851;BMP180;7517;48.400;11.770;2023-06-22T02:27:49;96552.00;;;22.90
14851;BMP180;7517;48.400;11.770;2023-06-22T02:30:16;96560.00;;;22.90
14851;BMP180;7517;48.400;11.770;2023-06-22T02:32:43;96558.00;;;22.90
14851;BMP180;7517;48.400;11.770;2023-06-22T02:35:12;96556.00;;;22.90
14851;BMP180;7517;48.400;11.770;2023-06-22T02:37:40;96555.00;;;22.90
14851;BMP180;7517;48.400;11.770;2023-06-22T02:40:09;96554.00;;;22.80
14851;BMP180;7517;48.400;11.770;2023-06-22T02:42:37;96560.00;;;22.80
14851;BMP180;7517;48.400;11.770;2023-06-22T02:45:05;96556.00;;;22.80
14851;BMP180;7517;48.400;11.770;2023-06-22T02:47:35;96560.00;;;22.80
14851;BMP180;7517;48.400;11.770;2023-06-22T02:50:02;96562.00;;;22.80
14851;BMP180;7517;48.400;11.770;2023-06-22T02:52:31;96550.00;;;22.80
14851;BMP180;7517;48.400;11.770;2023-06-22T02:54:58;96548.00;;;22.80
14851;BMP180;7517;48.400;11.770;2023-06-22T02:57:25;96538.00;;;22.80
14851;BMP180;7517;48.400;11.770;2023-06-22T02:59:52;96543.00;;;22.80
14851;BMP180;7517;48.400;11.770;2023-06-22T03:02:21;96540.00;;;22.80
14851;BMP180;7517;48.400;11.770;2023-06-22T03:04:48;96537.00;;;22.80
14851;BMP180;7517;48.400;11.770;2023-06-22T03:07:15;96534.00;;;22.80
14851;BMP180;7517;48.400;11.770;2023-06-22T03:09:45;96533.00;;;22.80
14851;BMP180;7517;48.400;11.770;2023-06-22T03:12:12;96535.00;;;22.90
14851;BMP180;7517;48.400;11.770;2023-06-22T03:14:39;96537.00;;;22.90
14851;BMP180;7517;48.400;11.770;2023-06-22T03:17:07;96535.00;;;22.90
14851;BMP180;7517;48.400;11.770;2023-06-22T03:19:34;96533.00;;;22.90
14851;BMP180;7517;48.400;11.770;2023-06-22T03:22:01;96536.00;;;22.90
14851;BMP180;7517;48.400;11.770;2023-06-22T03:24:28;96534.00;;;22.90
14851;BMP180;7517;48.400;11.770;2023-06-22T03:26:57;96530.00;;;22.90
14851;BMP180;7517;48.400;11.770;2023-06-22T03:29:24;96531.00;;;22.90
14851;BMP180;7517;48.400;11.770;2023-06-22T03:31:52;96527.00;;;23.00
14851;BMP180;7517;48.400;11.770;2023-06-22T03:34:19;96524.00;;;22.90
14851;BMP180;7517;48.400;11.770;2023-06-22T03:36:46;96530.00;;;23.00
14851;BMP180;7517;48.400;11.770;2023-06-22T03:39:13;96521.00;;;23.00
14851;BMP180;7517;48.400;11.770;2023-06-22T03:41:40;96530.00;;;23.00
14851;BMP180;7517;48.400;11.770;2023-06-22T03:44:09;96534.00;;;23.00
14851;BMP180;7517;48.400;11.770;2023-06-22T03:46:38;96531.00;;;23.00
14851;BMP180;7517;48.400;11.770;2023-06-22T03:49:05;96538.00;;;23.00
14851;BMP180;7517;48.400;11.770;2023-06-22T03:51:33;96527.00;;;23.00
14851;BMP180;7517;48.400;11.770;2023-06-22T03:54:00;96525.00;;;23.00
14851;BMP180;7517;48.400;11.770;2023-06-22T03:56:27;96532.00;;;23.00
14851;BMP180;7517;48.400;11.770;2023-06-22T03:58:54;96534.00;;;23.00
14851;BMP180;7517;48.400;11.770;2023-06-22T04:01:23;96540.00;;;23.00
14851;BMP180;7517;48.400;11.770;2023-06-22T04:03:50;96544.00;;;23.00
14851;BMP180;7517;48.400;11.770;2023-06-22T04:06:18;96548.00;;;23.00
14851;BMP180;7517;48.400;11.770;2023-06-22T04:08:46;96546.00;;;23.00
14851;BMP180;7517;48.400;11.770;2023-06-22T04:11:16;96536.00;;;23.00
14851;BMP180;7517;48.400;11.770;2023-06-22T04:13:44;96542.00;;;23.00
14851;BMP180;7517;48.400;11.770;2023-06-22T04:16:11;96541.00;;;23.00
14851;BMP180;7517;48.400;11.770;2023-06-22T04:18:40;96534.00;;;23.00
14851;BMP180;7517;48.400;11.770;2023-06-22T04:21:07;96536.00;;;23.00
14851;BMP180;7517;48.400;11.770;2023-06-22T04:23:35;96536.00;;;23.00
14851;BMP180;7517;48.400;11.770;2023-06-22T04:26:02;96529.00;;;23.10
14851;BMP180;7517;48.400;11.770;2023-06-22T04:28:31;96529.00;;;23.10
14851;BMP180;7517;48.400;11.770;2023-06-22T04:31:01;96533.00;;;23.10
14851;BMP180;7517;48.400;11.770;2023-06-22T04:33:28;96533.00;;;23.10
14851;BMP180;7517;48.400;11.770;2023-06-22T04:35:58;96522.00;;;23.10
14851;BMP180;7517;48.400;11.770;2023-06-22T04:38:27;96532.00;;;23.20
14851;BMP180;7517;48.400;11.770;2023-06-22T04:40:54;96529.00;;;23.20
14851;BMP180;7517;48.400;11.770;2023-06-22T04:43:21;96527.00;;;23.20
14851;BMP180;7517;48.400;11.770;2023-06-22T04:45:48;96526.00;;;23.20
14851;BMP180;7517;48.400;11.770;2023-06-22T04:48:18;96530.00;;;23.30
14851;BMP180;7517;48.400;11.770;2023-06-22T04:50:50;96533.00;;;23.30
14851;BMP180;7517;48.400;11.770;2023-06-22T04:53:19;96538.00;;;23.30
14851;BMP180;7517;48.400;11.770;2023-06-22T04:55:49;96536.00;;;23.30
14851;BMP180;7517;48.400;11.770;2023-06-22T04:58:21;96543.00;;;23.30
14851;BMP180;7517;48.400;11.770;2023-06-22T05:00:51;96538.00;;;23.40
14851;BMP180;7517;48.400;11.770;2023-06-22T05:03:30;96536.00;;;23.40
14851;BMP180;7517;48.400;11.770;2023-06-22T05:05:57;96533.00;;;23.40
14851;BMP180;7517;48.400;11.770;2023-06-22T05:08:29;96534.00;;;23.40
14851;BMP180;7517;48.400;11.770;2023-06-22T05:10:59;96529.00;;;23.40
14851;BMP180;7517;48.400;11.770;2023-06-22T05:13:28;96529.00;;;23.50
14851;BMP180;7517;48.400;11.770;2023-06-22T05:15:55;96519.00;;;23.50
14851;BMP180;7517;48.400;11.770;2023-06-22T05:18:30;96523.00;;;23.50
14851;BMP180;7517;48.400;11.770;2023-06-22T05:21:06;96519.00;;;23.50
14851;BMP180;7517;48.400;11.770;2023-06-22T05:23:36;96524.00;;;23.60
14851;BMP180;7517;48.400;11.770;2023-06-22T05:26:14;96526.00;;;23.60
14851;BMP180;7517;48.400;11.770;2023-06-22T05:28:44;96528.00;;;23.70
14851;BMP180;7517;48.400;11.770;2023-06-22T05:31:16;96527.00;;;23.70
14851;BMP180;7517;48.400;11.770;2023-06-22T05:33:46;96527.00;;;23.70
14851;BMP180;7517;48.400;11.770;2023-06-22T05:36:14;96535.00;;;23.80
14851;BMP180;7517;48.400;11.770;2023-06-22T05:38:42;96529.00;;;23.80
14851;BMP180;7517;48.400;11.770;2023-06-22T05:41:10;96536.00;;;23.90
14851;BMP180;7517;48.400;11.770;2023-06-22T05:43:37;96535.00;;;23.90
14851;BMP180;7517;48.400;11.770;2023-06-22T05:46:04;96532.00;;;24.00
14851;BMP180;7517;48.400;11.770;2023-06-22T05:48:32;96533.00;;;24.00
14851;BMP180;7517;48.400;11.770;2023-06-22T05:51:02;96522.00;;;24.10
14851;BMP180;7517;48.400;11.770;2023-06-22T05:53:29;96527.00;;;24.10
14851;BMP180;7517;48.400;11.770;2023-06-22T05:55:57;96524.00;;;24.20
14851;BMP180;7517;48.400;11.770;2023-06-22T05:58:24;96520.00;;;24.20
14851;BMP180;7517;48.400;11.770;2023-06-22T06:00:52;96525.00;;;24.30
14851;BMP180;7517;48.400;11.770;2023-06-22T06:03:19;96521.00;;;24.30
14851;BMP180;7517;48.400;11.770;2023-06-22T06:05:46;96514.00;;;24.30
14851;BMP180;7517;48.400;11.770;2023-06-22T06:08:13;96510.00;;;24.40
14851;BMP180;7517;48.400;11.770;2023-06-22T06:10:40;96508.00;;;24.40
14851;BMP180;7517;48.400;11.770;2023-06-22T06:13:09;96512.00;;;24.50
14851;BMP180;7517;48.400;11.770;2023-06-22T06:15:37;96513.00;;;24.50
14851;BMP180;7517;48.400;11.770;2023-06-22T06:18:06;96500.00;;;24.60
14851;BMP180;7517;48.400;11.770;2023-06-22T06:20:33;96495.00;;;24.60
14851;BMP180;7517;48.400;11.770;2023-06-22T06:23:01;96498.00;;;24.70
14851;BMP180;7517;48.400;11.770;2023-06-22T06:25:28;96503.00;;;24.80
14851;BMP180;7517;48.400;11.770;2023-06-22T06:27:55;96500.00;;;24.80
14851;BMP180;7517;48.400;11.770;2023-06-22T06:30:24;96515.00;;;24.90
14851;BMP180;7517;48.400;11.770;2023-06-22T06:32:51;96521.00;;;24.90
14851;BMP180;7517;48.400;11.770;2023-06-22T06:35:18;96513.00;;;25.00
14851;BMP180;7517;48.400;11.770;2023-06-22T06:37:50;96506.00;;;25.10
14851;BMP180;7517;48.400;11.770;2023-06-22T06:40:18;96503.00;;;25.10
14851;BMP180;7517;48.400;11.770;2023-06-22T06:42:47;96499.00;;;25.20
14851;BMP180;7517;48.400;11.770;2023-06-22T06:45:19;96494.00;;;25.30
14851;BMP180;7517;48.400;11.770;2023-06-22T06:47:51;96494.00;;;25.30
14851;BMP180;7517;48.400;11.770;2023-06-22T06:50:19;96494.00;;;25.40
14851;BMP180;7517;48.400;11.770;2023-06-22T06:52:46;96492.00;;;25.50
14851;BMP180;7517;48.400;11.770;2023-06-22T06:55:13;96490.00;;;25.50
14851;BMP180;7517;48.400;11.770;2023-06-22T06:57:41;96475.00;;;25.60
14851;BMP180;7517;48.400;11.770;2023-06-22T07:00:11;96479.00;;;25.70
14851;BMP180;7517;48.400;11.770;2023-06-22T07:02:40;96475.00;;;25.80
14851;BMP180;7517;48.400;11.770;2023-06-22T07:05:10;96488.00;;;25.90
14851;BMP180;7517;48.400;11.770;2023-06-22T07:07:40;96490.00;;;26.10
14851;BMP180;7517;48.400;11.770;2023-06-22T07:10:09;96494.00;;;26.20
14851;BMP180;7517;48.400;11.770;2023-06-22T07:12:36;96488.00;;;26.30
14851;BMP180;7517;48.400;11.770;2023-06-22T07:15:05;96484.00;;;26.40
14851;BMP180;7517;48.400;11.770;2023-06-22T07:17:33;96495.00;;;26.60
14851;BMP180;7517;48.400;11.770;2023-06-22T07:20:01;96490.00;;;26.70
14851;BMP180;7517;48.400;11.770;2023-06-22T07:22:32;96490.00;;;26.80
14851;BMP180;7517;48.400;11.770;2023-06-22T07:24:59;96495.00;;;27.00
14851;BMP180;7517;48.400;11.770;2023-06-22T07:27:27;96496.00;;;27.10
14851;BMP180;7517;48.400;11.770;2023-06-22T07:30:04;96489.00;;;27.20
14851;BMP180;7517;48.400;11.770;2023-06-22T07:32:33;96495.00;;;27.40
14851;BMP180;7517;48.400;11.770;2023-06-22T07:35:00;96492.00;;;27.50
14851;BMP180;7517;48.400;11.770;2023-06-22T07:37:32;96492.00;;;27.60
14851;BMP180;7517;48.400;11.770;2023-06-22T07:40:00;96484.00;;;27.80
14851;BMP180;7517;48.400;11.770;2023-06-22T07:42:31;96484.00;;;27.90
14851;BMP180;7517;48.400;11.770;2023-06-22T07:45:00;96483.00;;;28.00
14851;BMP180;7517;48.400;11.770;2023-06-22T07:47:28;96487.00;;;28.20
14851;BMP180;7517;48.400;11.770;2023-06-22T07:49:58;96479.00;;;28.30
14851;BMP180;7517;48.400;11.770;2023-06-22T07:52:27;96477.00;;;28.40
14851;BMP180;7517;48.400;11.770;2023-06-22T07:54:56;96463.00;;;28.60
14851;BMP180;7517;48.400;11.770;2023-06-22T07:57:23;96467.00;;;28.70
14851;BMP180;7517;48.400;11.770;2023-06-22T07:59:57;96467.00;;;28.80
14851;BMP180;7517;48.400;11.770;2023-06-22T08:02:26;96473.00;;;29.00
14851;BMP180;7517;48.400;11.770;2023-06-22T08:04:53;96471.00;;;29.20
14851;BMP180;7517;48.400;11.770;2023-06-22T08:07:21;96471.00;;;29.30
14851;BMP180;7517;48.400;11.770;2023-06-22T08:09:48;96472.00;;;29.40
14851;BMP180;7517;48.400;11.770;2023-06-22T08:12:17;96466.00;;;29.50
14851;BMP180;7517;48.400;11.770;2023-06-22T08:14:46;96470.00;;;29.70
14851;BMP180;7517;48.400;11.770;2023-06-22T08:17:13;96463.00;;;29.80
14851;BMP180;7517;48.400;11.770;2023-06-22T08:19:40;96471.00;;;29.90
14851;BMP180;7517;48.400;11.770;2023-06-22T08:22:08;96471.00;;;30.10
14851;BMP180;7517;48.400;11.770;2023-06-22T08:24:35;96466.00;;;30.20
14851;BMP180;7517;48.400;11.770;2023-06-22T08:27:05;96461.00;;;30.40
14851;BMP180;7517;48.400;11.770;2023-06-22T08:29:35;96452.00;;;30.50
14851;BMP180;7517;48.400;11.770;2023-06-22T08:32:03;96458.00;;;30.60
14851;BMP180;7517;48.400;11.770;2023-06-22T08:34:31;96463.00;;;30.80
14851;BMP180;7517;48.400;11.770;2023-06-22T08:36:58;96472.00;;;30.90
14851;BMP180;7517;48.400;11.770;2023-06-22T08:39:25;96461.00;;;31.00
14851;BMP180;7517;48.400;11.770;2023-06-22T08:41:53;96462.00;;;31.20
14851;BMP180;7517;48.400;11.770;2023-06-22T08:44:21;96463.00;;;31.30
14851;BMP180;7517;48.400;11.770;2023-06-22T08:46:50;96462.00;;;31.50
14851;BMP180;7517;48.400;11.770;2023-06-22T08:49:17;96452.00;;;31.60
14851;BMP180;7517;48.400;11.770;2023-06-22T08:51:44;96464.00;;;31.70
14851;BMP180;7517;48.400;11.770;2023-06-22T08:54:13;96457.00;;;31.90
14851;BMP180;7517;48.400;11.770;2023-06-22T08:56:40;96459.00;;;32.00
14851;BMP180;7517;48.400;11.770;2023-06-22T08:59:09;96455.00;;;32.10
14851;BMP180;7517;48.400;11.770;2023-06-22T09:01:36;96455.00;;;32.20
14851;BMP180;7517;48.400;11.770;2023-06-22T09:04:06;96461.00;;;32.30
14851;BMP180;7517;48.400;11.770;2023-06-22T09:06:35;96454.00;;;32.40
14851;BMP180;7517;48.400;11.770;2023-06-22T09:09:07;96448.00;;;32.50
14851;BMP180;7517;48.400;11.770;2023-06-22T09:11:34;96457.00;;;32.60
14851;BMP180;7517;48.400;11.770;2023-06-22T09:14:02;96452.00;;;32.70
14851;BMP180;7517;48.400;11.770;2023-06-22T09:16:29;96462.00;;;32.80
14851;BMP180;7517;48.400;11.770;2023-06-22T09:18:57;96462.00;;;32.90
14851;BMP180;7517;48.400;11.770;2023-06-22T09:21:26;96456.00;;;32.90
14851;BMP180;7517;48.400;11.770;2023-06-22T09:23:54;96459.00;;;33.00
14851;BMP180;7517;48.400;11.770;2023-06-22T09:26:21;96456.00;;;33.00
14851;BMP180;7517;48.400;11.770;2023-06-22T09:28:50;96455.00;;;33.10
14851;BMP180;7517;48.400;11.770;2023-06-22T09:31:17;96461.00;;;33.20
14851;BMP180;7517;48.400;11.770;2023-06-22T09:33:52;96458.00;;;33.30
14851;BMP180;7517;48.400;11.770;2023-06-22T09:36:20;96448.00;;;33.40
14851;BMP180;7517;48.400;11.770;2023-06-22T09:38:49;96456.00;;;33.50
14851;BMP180;7517;48.400;11.770;2023-06-22T09:41:21;96450.00;;;33.60
14851;BMP180;7517;48.400;11.770;2023-06-22T09:43:48;96448.00;;;33.70
14851;BMP180;7517;48.400;11.770;2023-06-22T09:46:16;96441.00;;;33.90
14851;BMP180;7517;48.400;11.770;2023-06-22T09:48:46;96440.00;;;34.00
14851;BMP180;7517;48.400;11.770;2023-06-22T09:51:13;96440.00;;;34.20
14851;BMP180;7517;48.400;11.770;2023-06-22T09:53:41;96438.00;;;34.30
14851;BMP180;7517;48.400;11.770;2023-06-22T09:56:10;96440.00;;;34.40
14851;BMP180;7517;48.400;11.770;2023-06-22T09:58:41;96449.00;;;34.60
14851;BMP180;7517;48.400;11.770;2023-06-22T10:01:09;96448.00;;;34.80
14851;BMP180;7517;48.400;11.770;2023-06-22T10:03:37;96443.00;;;34.90
14851;BMP180;7517;48.400;11.770;2023-06-22T10:06:04;96447.00;;;35.10
14851;BMP180;7517;48.400;11.770;2023-06-22T10:08:32;96436.00;;;35.20
14851;BMP180;7517;48.400;11.770;2023-06-22T10:10:59;96443.00;;;35.40
14851;BMP180;7517;48.400;11.770;2023-06-22T10:13:28;96441.00;;;35.50
14851;BMP180;7517;48.400;11.770;2023-06-22T10:15:55;96444.00;;;35.70
14851;BMP180;7517;48.400;11.770;2023-06-22T10:18:24;96437.00;;;35.80
14851;BMP180;7517;48.400;11.770;2023-06-22T10:20:53;96435.00;;;35.90
14851;BMP180;7517;48.400;11.770;2023-06-22T10:23:21;96429.00;;;36.00
14851;BMP180;7517;48.400;11.770;2023-06-22T10:25:49;96425.00;;;36.10
14851;BMP180;7517;48.400;11.770;2023-06-22T10:28:16;96427.00;;;36.30
14851;BMP180;7517;48.400;11.770;2023-06-22T10:30:45;96419.00;;;36.40
14851;BMP180;7517;48.400;11.770;2023-06-22T10:33:12;96426.00;;;36.50
14851;BMP180;7517;48.400;11.770;2023-06-22T10:35:39;96422.00;;;36.60
14851;BMP180;7517;48.400;11.770;2023-06-22T10:38:07;96419.00;;;36.80
14851;BMP180;7517;48.400;11.770;2023-06-22T10:40:35;96412.00;;;36.90
14851;BMP180;7517;48.400;11.770;2023-06-22T10:43:02;96418.00;;;37.00
14851;BMP180;7517;48.400;11.770;2023-06-22T10:45:29;96419.00;;;37.10
14851;BMP180;7517;48.400;11.770;2023-06-22T10:47:58;96409.00;;;37.20
14851;BMP180;7517;48.400;11.770;2023-06-22T10:50:26;96410.00;;;37.30
14851;BMP180;7517;48.400;11.770;2023-06-22T10:52:54;96406.00;;;37.40
14851;BMP180;7517;48.400;11.770;2023-06-22T10:55:23;96403.00;;;37.50
14851;BMP180;7517;48.400;11.770;2023-06-22T10:57:50;96409.00;;;37.50
14851;BMP180;7517;48.400;11.770;2023-06-22T11:00:18;96408.00;;;37.50
14851;BMP180;7517;48.400;11.770;2023-06-22T11:02:47;96403.00;;;37.50
14851;BMP180;7517;48.400;11.770;2023-06-22T11:05:16;96396.00;;;37.40
14851;BMP180;7517;48.400;11.770;2023-06-22T11:07:44;96400.00;;;37.30
14851;BMP180;7517;48.400;11.770;2023-06-22T11:10:12;96394.00;;;37.30
14851;BMP180;7517;48.400;11.770;2023-06-22T11:12:39;96394.00;;;37.20
14851;BMP180;7517;48.400;11.770;2023-06-22T11:15:08;96391.00;;;37.10
14851;BMP180;7517;48.400;11.770;2023-06-22T11:17:35;96385.00;;;37.00
14851;BMP180;7517;48.400;11.770;2023-06-22T11:20:04;96379.00;;;36.90
14851;BMP180;7517;48.400;11.770;2023-06-22T11:22:37;96380.00;;;36.80
14851;BMP180;7517;48.400;11.770;2023-06-22T11:25:06;96373.00;;;36.80
14851;BMP180;7517;48.400;11.770;2023-06-22T11:27:34;96371.00;;;36.70
14851;BMP180;7517;48.400;11.770;2023-06-22T11:30:02;96379.00;;;36.60
14851;BMP180;7517;48.400;11.770;2023-06-22T11:32:29;96371.00;;;36.60
14851;BMP180;7517;48.400;11.770;2023-06-22T11:34:57;96366.00;;;36.50
14851;BMP180;7517;48.400;11.770;2023-06-22T11:37:24;96364.00;;;36.50
14851;BMP180;7517;48.400;11.770;2023-06-22T11:39:53;96356.00;;;36.40
14851;BMP180;7517;48.400;11.770;2023-06-22T11:42:22;96355.00;;;36.40
14851;BMP180;7517;48.400;11.770;2023-06-22T11:44:51;96360.00;;;36.30
14851;BMP180;7517;48.400;11.770;2023-06-22T11:47:18;96357.00;;;36.30
14851;BMP180;7517;48.400;11.770;2023-06-22T11:49:46;96359.00;;;36.30
14851;BMP180;7517;48.400;11.770;2023-06-22T11:52:14;96353.00;;;36.20
14851;BMP180;7517;48.400;11.770;2023-06-22T11:54:43;96355.00;;;36.10
14851;BMP180;7517;48.400;11.770;2023-06-22T11:57:13;96343.00;;;36.10
14851;BMP180;7517;48.400;11.770;2023-06-22T11:59:40;96336.00;;;36.10
14851;BMP180;7517;48.400;11.770;2023-06-22T12:02:07;96340.00;;;36.10
14851;BMP180;7517;48.400;11.770;2023-06-22T12:04:35;96344.00;;;36.00
14851;BMP180;7517;48.400;11.770;2023-06-22T12:07:03;96330.00;;;36.00
14851;BMP180;7517;48.400;11.770;2023-06-22T12:09:31;96336.00;;;36.00
14851;BMP180;7517;48.400;11.770;2023-06-22T12:11:58;96332.00;;;36.00
14851;BMP180;7517;48.400;11.770;2023-06-22T12:14:27;96323.00;;;35.90
14851;BMP180;7517;48.400;11.770;2023-06-22T12:16:55;96330.00;;;35.90
14851;BMP180;7517;48.400;11.770;2023-06-22T12:19:22;96323.00;;;35.90
14851;BMP180;7517;48.400;11.770;2023-06-22T12:21:50;96324.00;;;35.90
14851;BMP180;7517;48.400;11.770;2023-06-22T12:24:17;96312.00;;;35.90
14851;BMP180;7517;48.400;11.770;2023-06-22T12:26:44;96314.00;;;35.90
14851;BMP180;7517;48.400;11.770;2023-06-22T12:29:11;96312.00;;;35.90
14851;BMP180;7517;48.400;11.770;2023-06-22T12:31:42;96299.00;;;35.90
14851;BMP180;7517;48.400;11.770;2023-06-22T12:34:10;96308.00;;;35.90
14851;BMP180;7517;48.400;11.770;2023-06-22T12:36:37;96310.00;;;35.90
14851;BMP180;7517;48.400;11.770;2023-06-22T12:39:04;96305.00;;;35.90
14851;BMP180;7517;48.400;11.770;2023-06-22T12:41:32;96298.00;;;35.90
14851;BMP180;7517;48.400;11.770;2023-06-22T12:43:59;96302.00;;;35.90
14851;BMP180;7517;48.400;11.770;2023-06-22T12:46:26;96297.00;;;35.90
14851;BMP180;7517;48.400;11.770;2023-06-22T12:48:57;96297.00;;;35.90
14851;BMP180;7517;48.400;11.770;2023-06-22T12:51:26;96299.00;;;35.90
14851;BMP180;7517;48.400;11.770;2023-06-22T12:53:54;96291.00;;;36.00
14851;BMP180;7517;48.400;11.770;2023-06-22T12:56:22;96285.00;;;36.00
14851;BMP180;7517;48.400;11.770;2023-06-22T12:58:49;96279.00;;;36.00
14851;BMP180;7517;48.400;11.770;2023-06-22T13:01:16;96280.00;;;36.10
14851;BMP180;7517;48.400;11.770;2023-06-22T13:03:44;96287.00;;;36.10
14851;BMP180;7517;48.400;11.770;2023-06-22T13:06:13;96288.00;;;36.10
14851;BMP180;7517;48.400;11.770;2023-06-22T13:08:40;96288.00;;;36.20
14851;BMP180;7517;48.400;11.770;2023-06-22T13:11:08;96286.00;;;36.20
14851;BMP180;7517;48.400;11.770;2023-06-22T13:13:35;96271.00;;;36.20
14851;BMP180;7517;48.400;11.770;2023-06-22T13:16:02;96267.00;;;36.20
14851;BMP180;7517;48.400;11.770;2023-06-22T13:18:30;96266.00;;;36.20
14851;BMP180;7517;48.400;11.770;2023-06-22T13:20:58;96271.00;;;36.20
14851;BMP180;7517;48.400;11.770;2023-06-22T13:23:27;96266.00;;;36.20
14851;BMP180;7517;48.400;11.770;2023-06-22T13:25:54;96259.00;;;36.30
14851;BMP180;7517;48.400;11.770;2023-06-22T13:28:21;96259.00;;;36.30
14851;BMP180;7517;48.400;11.770;2023-06-22T13:30:49;96249.00;;;36.30
14851;BMP180;7517;48.400;11.770;2023-06-22T13:33:17;96251.00;;;36.30
14851;BMP180;7517;48.400;11.770;2023-06-22T13:35:44;96250.00;;;36.30
14851;BMP180;7517;48.400;11.770;2023-06-22T13:38:11;96251.00;;;36.30
14851;BMP180;7517;48.400;11.770;2023-06-22T13:40:40;96249.00;;;36.30
14851;BMP180;7517;48.400;11.770;2023-06-22T13:43:08;96249.00;;;36.30
14851;BMP180;7517;48.400;11.770;2023-06-22T13:45:35;96247.00;;;36.30
14851;BMP180;7517;48.400;11.770;2023-06-22T13:48:03;96252.00;;;36.30
14851;BMP180;7517;48.400;11.770;2023-06-22T13:50:30;96248.00;;;36.30
14851;BMP180;7517;48.400;11.770;2023-06-22T13:52:59;96248.00;;;36.30
14851;BMP180;7517;48.400;11.770;2023-06-22T13:55:26;96248.00;;;36.30
14851;BMP180;7517;48.400;11.770;2023-06-22T13:57:55;96245.00;;;36.30
14851;BMP180;7517;48.400;11.770;2023-06-22T14:00:23;96251.00;;;36.30
14851;BMP180;7517;48.400;11.770;2023-06-22T14:02:50;96247.00;;;36.30
14851;BMP180;7517;48.400;11.770;2023-06-22T14:05:17;96253.00;;;36.30
14851;BMP180;7517;48.400;11.770;2023-06-22T14:07:45;96249.00;;;36.30
14851;BMP180;7517;48.400;11.770;2023-06-22T14:10:12;96248.00;;;36.30
14851;BMP180;7517;48.400;11.770;2023-06-22T14:12:40;96248.00;;;36.30
14851;BMP180;7517;48.400;11.770;2023-06-22T14:15:09;96244.00;;;36.30
14851;BMP180;7517;48.400;11.770;2023-06-22T14:17:36;96240.00;;;36.30